• Join FlightAware (Why Join?)
  • Login
  • US Flag 
09:31PM EDT


 

Airport Tracker/Info


-or-


 

Live Flight TrackerFlight Track Log ✈ UAL6118 ✈ 18-Aug-2013 ✈ KCLT - KIAD

Flight Track Log - Related Links

Times and Time Zones

All times are in EDT time to prevent confusion due to time zone crossing. See the UAL6118 flight status page for this flight to view local times or setup timezone preferences in your user account.

Time Position Orientation Groundspeed Altitude Reporting Facility
EDT Latitude Longitude Course Direction KTS MPH feet Rate Location/Type
02:52PM 35.1908 -80.9356 North 167 192 1,400  Level Atlanta Center
02:54PM 35.1358 -80.9097 159° South 215 247 3,300 1,620 Climbing Atlanta Center
02:55PM 35.0947 -80.8478 129° Southeast 288 331 4,900 1,860 Climbing Atlanta Center
02:56PM 35.1657 -80.5895 29° Northeast  Level FlightAware Approximate
02:56PM 35.1106 -80.7431 79° East 299 344 7,300  Level Atlanta Center
02:57PM 35.2509 -80.5304 30° Northeast  Level FlightAware Approximate
02:57PM 35.1603 -80.6522 56° Northeast 309 356 9,400  Level Atlanta Center
02:58PM 35.3248 -80.4667 North  Level FlightAware Approximate
02:58PM 35.2081 -80.5614 57° Northeast 333 383 11,100  Level Atlanta Center
03:00PM 35.3364 -80.3253 56° Northeast 349 402 13,400 960 Climbing Washington Center
03:01PM 35.3969 -80.2142 56° Northeast 377 434 14,400 960 Climbing Washington Center
03:02PM 35.4456 -80.0919 64° Northeast 389 448 15,400 780 Climbing Washington Center
03:03PM 35.4697 -80.0017 72° East 389 448 16,100 900 Climbing Washington Center
03:04PM 35.5111 -79.8406 72° East 399 459 17,300 900 Climbing Washington Center
03:05PM 35.5447 -79.7097 72° East 404 465 17,900 780 Climbing Washington Center
03:06PM 35.5786 -79.5708 73° East 404 465 18,900 1,020 Climbing Washington Center
03:07PM 35.6211 -79.4222 71° East 416 479 20,000 960 Climbing Washington Center
03:08PM 35.6711 -79.2942 64° Northeast 416 479 20,900 960 Climbing Washington Center
03:09PM 35.7433 -79.1800 52° Northeast 416 479 21,900 900 Climbing Washington Center
03:10PM 35.8481 -79.1028 31° Northeast 411 473 22,800 840 Climbing Washington Center
03:11PM 35.9525 -79.0278 30° Northeast 423 487 23,600 600 Climbing Washington Center
03:12PM 36.0569 -78.9500 31° Northeast 433 498 24,100 540 Climbing Washington Center
03:13PM 36.1633 -78.8697 31° Northeast 439 505 24,700 600 Climbing Washington Center
03:14PM 36.2719 -78.7919 30° Northeast 439 505 25,300 720 Climbing Washington Center
03:15PM 36.3783 -78.7083 32° Northeast 439 505 26,200 840 Climbing Washington Center
03:16PM 36.4847 -78.6300 31° Northeast 439 505 27,000 360 Climbing Washington Center
03:17PM 36.5933 -78.5489 31° Northeast 444 511 27,000  Level Washington Center
03:18PM 36.7058 -78.4597 32° Northeast 462 532 27,000  Level Washington Center
03:19PM 36.8247 -78.3736 30° Northeast 474 545 27,000  Level Washington Center
03:20PM 36.9294 -78.2681 39° Northeast 484 557 27,000  Level Washington Center
03:21PM 37.0014 -78.1197 59° Northeast 489 563 27,000  Level Washington Center
03:22PM 37.0692 -77.9683 61° Northeast 489 563 27,000 -480 Level Washington Center
03:23PM 37.1514 -77.8172 56° Northeast 504 580 26,100 -960 Descending Washington Center
03:24PM 37.2761 -77.7372 27° Northeast 487 560 25,100 -1,020 Descending Washington Center
03:25PM 37.4081 -77.6939 15° North 474 545 24,100 -1,080 Descending Washington Center
03:26PM 37.5319 -77.6528 15° North 467 537 23,000 -1,260 Descending Washington Center
03:27PM 37.6369 -77.6189 14° North 429 494 21,600 -1,980 Descending Washington Center
03:28PM 37.7436 -77.5931 11° North 396 456 19,200 -2,340 Descending Washington Center
03:29PM 37.8417 -77.5981 358° North 369 425 17,000 -2,340 Descending Washington Center
03:30PM 37.9372 -77.6111 354° North 347 399 14,600 -2,280 Descending Washington Center
03:31PM 38.0169 -77.5922 11° North 324 373 12,500 -2,100 Descending Washington Center
03:32PM 38.0825 -77.5386 33° Northeast 293 337 10,500 -1,320 Descending Washington Center
03:33PM 38.1522 -77.4769 35° Northeast 293 337 10,000 -300 Descending Washington Center
03:34PM 38.2239 -77.4233 30° Northeast 298 343 10,000 -480 Level Washington Center
03:35PM 38.2997 -77.3750 27° Northeast 303 349 9,100 -1,020 Descending Washington Center
03:36PM 38.3750 -77.3661 North 293 337 8,100 -1,080 Descending Washington Center
03:37PM 38.4389 -77.4153 329° Northwest 249 287 7,100 -1,020 Descending Washington Center
03:38PM 38.5050 -77.4489 338° Northwest 254 292 6,100 -1,140 Descending Washington Center
03:39PM 38.5700 -77.4292 13° North 241 277 4,800 -1,080 Descending Washington Center
03:40PM 38.6264 -77.4147 11° North 221 254 4,000 -540 Descending Washington Center
03:41PM 38.6667 -77.4333 340° North 203 234 4,000 -420 Level Potomac TRACON
03:42PM 38.7000 -77.4333 360° North 171 197 3,400 -840 Descending Potomac TRACON
03:43PM 38.7500 -77.4333 360° North 140 161 2,400 -840 Descending Potomac TRACON
03:44PM 38.7833 -77.4333 360° North 137 158 1,900 -300 Descending Potomac TRACON
03:45PM 38.8167 -77.4333 360° North 139 160 1,900 -240 Level Potomac TRACON
03:46PM 38.8667 -77.4333 360° North 138 159 1,500 -600 Descending Potomac TRACON
03:47PM 38.9000 -77.4333 360° North 141 162 800 -720 Descending Potomac TRACON